الصفحة الرئيسية
METAR-TAF:

METAR-TAF

مطار :

سان بيار, سان بيير وميكلون

دائرة عرض: 46-46N, خط طول: 056-10W, ارتفاع: 3 متر

مراقبة الطقس الحالي

تاريخ ووقت الإصدار 14 دقيقة قبل الساعة 06:00UTC
ريح 3 عقدة من الجنوب الغربي
درجة الحرارة 4°درجة مئوية
الرطوبة 100%
ضغط 1022 hPa
الرؤية: 0400 متر
ضباب,

METAR: LFVP 180600Z AUTO 23003KT 0450 0400 R26/0600U FG VV/// 04/04 Q1022

زمن: 04:14 (06:14 UTC)

توقعات

تاريخ ووقت الإصدار 13ساعات و 14 دقيقة قبل الساعة 17:00UTC
التوقعات صالحة من17 الساعة 18 UTC إلى 18 الساعة 03 UTC
ريح 5 عقدةمن اتجاهات متغيرة
الرؤية 10 كم أو أكثر
غيوم متفرقة على ارتفاع 800 قدم
مؤقت
من 17 الساعة 18 UTC إلى 17 الساعة 23 UTC
الرؤية: 0800 متر
غيوم مفككة على ارتفاع 300 قدم
ضباب
أصبح
من 17 الساعة 22 UTC إلى 17 الساعة 24 UTC
الرؤية: 0500 متر
ملبد بالغيوم على ارتفاع 200 قدم
ضباب,

TAF: LFVP 171700Z 1718/1803 VRB05KT 9999 SCT008 TEMPO 1718/1723 0800 FG BKN003 BECMG 1722/1724 0500 FG OVC002

أرصاد الطقس والتوقعات من أكثر من 4000 مطار (تقارير الطقس للمطار METAR والتنبؤ بالطقس بالمطارTAF).

المحطات المتاحة هي النقط الصفراء والحمراء على الخريطة.

حرك المؤشر فوق النقطة لمعرفة اسم المحطة.

ثم انقر لمعرفة أرصاد وتوقعات الطقس.

لتغيير الخارطة: اضغط على الأزرار الخضراء مع رمز الصليب الأسود للتكبير. على الزر الأخضر مع شرطة للتصغير، أو على الأسهم الخضراء للخرائط المجاورة.


METAR-TAF: